sensor_id;sensor_type;location;lat;lon;timestamp;P1;durP1;ratioP1;P2;durP2;ratioP2
10007;SDS011;5043;41.766;26.204;2023-02-28T00:01:13;12.55;;;7.25;;
10007;SDS011;5043;41.766;26.204;2023-02-28T00:03:40;14.90;;;8.43;;
10007;SDS011;5043;41.766;26.204;2023-02-28T00:06:06;17.77;;;7.82;;
10007;SDS011;5043;41.766;26.204;2023-02-28T00:08:32;16.52;;;7.38;;
10007;SDS011;5043;41.766;26.204;2023-02-28T00:11:08;18.67;;;7.05;;
10007;SDS011;5043;41.766;26.204;2023-02-28T00:13:37;15.02;;;5.88;;
10007;SDS011;5043;41.766;26.204;2023-02-28T00:16:07;15.95;;;6.35;;
10007;SDS011;5043;41.766;26.204;2023-02-28T00:18:34;21.48;;;7.32;;
10007;SDS011;5043;41.766;26.204;2023-02-28T00:21:00;16.27;;;6.22;;
10007;SDS011;5043;41.766;26.204;2023-02-28T00:23:26;16.95;;;6.07;;
10007;SDS011;5043;41.766;26.204;2023-02-28T00:25:52;10.55;;;5.53;;
10007;SDS011;5043;41.766;26.204;2023-02-28T00:28:17;12.77;;;5.45;;
10007;SDS011;5043;41.766;26.204;2023-02-28T00:30:44;15.43;;;5.18;;
10007;SDS011;5043;41.766;26.204;2023-02-28T00:33:10;17.48;;;6.00;;
10007;SDS011;5043;41.766;26.204;2023-02-28T00:35:35;13.30;;;5.88;;
10007;SDS011;5043;41.766;26.204;2023-02-28T00:38:00;16.52;;;5.53;;
10007;SDS011;5043;41.766;26.204;2023-02-28T00:40:26;12.05;;;5.78;;
10007;SDS011;5043;41.766;26.204;2023-02-28T00:42:52;15.50;;;6.35;;
10007;SDS011;5043;41.766;26.204;2023-02-28T00:45:17;11.45;;;5.60;;
10007;SDS011;5043;41.766;26.204;2023-02-28T00:47:42;12.40;;;5.15;;
10007;SDS011;5043;41.766;26.204;2023-02-28T00:50:08;11.40;;;5.10;;
10007;SDS011;5043;41.766;26.204;2023-02-28T00:52:34;12.63;;;5.70;;
10007;SDS011;5043;41.766;26.204;2023-02-28T00:55:00;11.77;;;4.88;;
10007;SDS011;5043;41.766;26.204;2023-02-28T00:57:25;17.00;;;5.65;;
10007;SDS011;5043;41.766;26.204;2023-02-28T00:59:51;12.50;;;5.10;;
10007;SDS011;5043;41.766;26.204;2023-02-28T01:02:19;14.50;;;5.57;;
10007;SDS011;5043;41.766;26.204;2023-02-28T01:04:45;10.25;;;5.05;;
10007;SDS011;5043;41.766;26.204;2023-02-28T01:07:11;11.27;;;4.82;;
10007;SDS011;5043;41.766;26.204;2023-02-28T01:09:36;10.98;;;5.45;;
10007;SDS011;5043;41.766;26.204;2023-02-28T01:12:02;14.13;;;5.47;;
10007;SDS011;5043;41.766;26.204;2023-02-28T01:14:28;14.38;;;5.47;;
10007;SDS011;5043;41.766;26.204;2023-02-28T01:16:53;15.95;;;4.82;;
10007;SDS011;5043;41.766;26.204;2023-02-28T01:19:18;8.65;;;4.50;;
10007;SDS011;5043;41.766;26.204;2023-02-28T01:21:44;14.13;;;5.55;;
10007;SDS011;5043;41.766;26.204;2023-02-28T01:24:09;12.82;;;5.20;;
10007;SDS011;5043;41.766;26.204;2023-02-28T01:26:35;14.18;;;5.28;;
10007;SDS011;5043;41.766;26.204;2023-02-28T01:29:00;12.77;;;5.35;;
10007;SDS011;5043;41.766;26.204;2023-02-28T01:31:26;10.82;;;4.38;;
10007;SDS011;5043;41.766;26.204;2023-02-28T01:33:51;11.85;;;4.80;;
10007;SDS011;5043;41.766;26.204;2023-02-28T01:36:18;10.23;;;4.80;;
10007;SDS011;5043;41.766;26.204;2023-02-28T01:38:48;13.43;;;5.25;;
10007;SDS011;5043;41.766;26.204;2023-02-28T01:41:16;12.48;;;5.93;;
10007;SDS011;5043;41.766;26.204;2023-02-28T01:46:10;13.07;;;6.80;;
10007;SDS011;5043;41.766;26.204;2023-02-28T01:48:40;12.90;;;5.72;;
10007;SDS011;5043;41.766;26.204;2023-02-28T01:51:20;15.00;;;6.65;;
10007;SDS011;5043;41.766;26.204;2023-02-28T01:53:53;10.75;;;5.30;;
10007;SDS011;5043;41.766;26.204;2023-02-28T01:56:24;11.52;;;5.88;;
10007;SDS011;5043;41.766;26.204;2023-02-28T01:58:54;13.02;;;5.60;;
10007;SDS011;5043;41.766;26.204;2023-02-28T02:01:20;14.27;;;6.10;;
10007;SDS011;5043;41.766;26.204;2023-02-28T02:03:54;12.55;;;5.68;;
10007;SDS011;5043;41.766;26.204;2023-02-28T02:06:23;13.73;;;5.53;;
10007;SDS011;5043;41.766;26.204;2023-02-28T02:08:51;16.15;;;6.18;;
10007;SDS011;5043;41.766;26.204;2023-02-28T02:11:18;17.88;;;6.47;;
10007;SDS011;5043;41.766;26.204;2023-02-28T02:16:28;15.85;;;5.97;;
10007;SDS011;5043;41.766;26.204;2023-02-28T02:19:26;15.30;;;6.40;;
10007;SDS011;5043;41.766;26.204;2023-02-28T02:30:57;12.90;;;5.85;;
10007;SDS011;5043;41.766;26.204;2023-02-28T02:36:25;18.58;;;6.05;;
10007;SDS011;5043;41.766;26.204;2023-02-28T02:41:52;10.43;;;6.05;;
10007;SDS011;5043;41.766;26.204;2023-02-28T02:44:23;14.15;;;5.97;;
10007;SDS011;5043;41.766;26.204;2023-02-28T02:46:58;14.60;;;6.93;;
10007;SDS011;5043;41.766;26.204;2023-02-28T02:49:28;12.48;;;5.97;;
10007;SDS011;5043;41.766;26.204;2023-02-28T02:51:57;10.57;;;5.95;;
10007;SDS011;5043;41.766;26.204;2023-02-28T02:54:29;10.60;;;5.43;;
10007;SDS011;5043;41.766;26.204;2023-02-28T02:56:59;13.00;;;6.60;;
10007;SDS011;5043;41.766;26.204;2023-02-28T02:59:28;13.55;;;5.93;;
10007;SDS011;5043;41.766;26.204;2023-02-28T03:01:56;16.88;;;6.50;;
10007;SDS011;5043;41.766;26.204;2023-02-28T03:04:25;16.85;;;7.18;;
10007;SDS011;5043;41.766;26.204;2023-02-28T03:06:55;15.77;;;6.35;;
10007;SDS011;5043;41.766;26.204;2023-02-28T03:09:24;13.88;;;6.55;;
10007;SDS011;5043;41.766;26.204;2023-02-28T03:11:51;10.93;;;5.70;;
10007;SDS011;5043;41.766;26.204;2023-02-28T03:14:40;12.85;;;5.93;;
10007;SDS011;5043;41.766;26.204;2023-02-28T03:20:02;13.00;;;6.28;;
10007;SDS011;5043;41.766;26.204;2023-02-28T03:23:01;14.13;;;6.90;;
10007;SDS011;5043;41.766;26.204;2023-02-28T03:31:15;11.77;;;5.97;;
10007;SDS011;5043;41.766;26.204;2023-02-28T03:33:43;20.50;;;6.63;;
10007;SDS011;5043;41.766;26.204;2023-02-28T03:36:19;10.07;;;6.03;;
10007;SDS011;5043;41.766;26.204;2023-02-28T03:38:51;15.68;;;7.35;;
10007;SDS011;5043;41.766;26.204;2023-02-28T03:41:27;15.77;;;6.60;;
10007;SDS011;5043;41.766;26.204;2023-02-28T03:44:02;13.85;;;6.25;;
10007;SDS011;5043;41.766;26.204;2023-02-28T03:46:32;17.08;;;6.95;;
10007;SDS011;5043;41.766;26.204;2023-02-28T03:49:09;11.35;;;6.40;;
10007;SDS011;5043;41.766;26.204;2023-02-28T03:52:04;14.10;;;6.38;;
10007;SDS011;5043;41.766;26.204;2023-02-28T03:54:33;13.27;;;6.75;;
10007;SDS011;5043;41.766;26.204;2023-02-28T03:59:37;9.77;;;5.97;;
10007;SDS011;5043;41.766;26.204;2023-02-28T04:02:07;14.70;;;6.60;;
10007;SDS011;5043;41.766;26.204;2023-02-28T04:04:33;12.45;;;6.22;;
10007;SDS011;5043;41.766;26.204;2023-02-28T04:07:06;15.20;;;5.63;;
10007;SDS011;5043;41.766;26.204;2023-02-28T04:09:33;16.15;;;6.90;;
10007;SDS011;5043;41.766;26.204;2023-02-28T04:11:59;11.90;;;6.25;;
10007;SDS011;5043;41.766;26.204;2023-02-28T04:14:24;9.65;;;5.65;;
10007;SDS011;5043;41.766;26.204;2023-02-28T04:16:50;10.15;;;5.85;;
10007;SDS011;5043;41.766;26.204;2023-02-28T04:19:16;12.10;;;6.45;;
10007;SDS011;5043;41.766;26.204;2023-02-28T04:21:49;14.80;;;5.93;;
10007;SDS011;5043;41.766;26.204;2023-02-28T04:24:20;9.35;;;5.75;;
10007;SDS011;5043;41.766;26.204;2023-02-28T04:26:49;8.48;;;5.68;;
10007;SDS011;5043;41.766;26.204;2023-02-28T04:29:34;16.95;;;5.70;;
10007;SDS011;5043;41.766;26.204;2023-02-28T04:32:00;10.48;;;6.38;;
10007;SDS011;5043;41.766;26.204;2023-02-28T04:34:26;14.25;;;6.75;;
10007;SDS011;5043;41.766;26.204;2023-02-28T04:36:53;8.70;;;5.70;;
10007;SDS011;5043;41.766;26.204;2023-02-28T04:39:20;10.85;;;6.32;;
10007;SDS011;5043;41.766;26.204;2023-02-28T04:41:46;11.75;;;6.85;;
10007;SDS011;5043;41.766;26.204;2023-02-28T04:44:12;14.35;;;7.55;;
10007;SDS011;5043;41.766;26.204;2023-02-28T04:46:38;12.93;;;7.35;;
10007;SDS011;5043;41.766;26.204;2023-02-28T04:49:03;10.25;;;7.05;;
10007;SDS011;5043;41.766;26.204;2023-02-28T04:51:29;17.58;;;8.80;;
10007;SDS011;5043;41.766;26.204;2023-02-28T04:53:54;14.68;;;7.78;;
10007;SDS011;5043;41.766;26.204;2023-02-28T04:56:20;15.95;;;11.35;;
10007;SDS011;5043;41.766;26.204;2023-02-28T04:58:46;18.80;;;11.40;;
10007;SDS011;5043;41.766;26.204;2023-02-28T05:01:20;15.27;;;8.95;;
10007;SDS011;5043;41.766;26.204;2023-02-28T05:03:48;12.05;;;7.57;;
10007;SDS011;5043;41.766;26.204;2023-02-28T05:06:14;14.73;;;8.68;;
10007;SDS011;5043;41.766;26.204;2023-02-28T05:08:40;15.85;;;8.65;;
10007;SDS011;5043;41.766;26.204;2023-02-28T05:11:07;15.20;;;7.35;;
10007;SDS011;5043;41.766;26.204;2023-02-28T05:13:38;11.40;;;7.28;;
10007;SDS011;5043;41.766;26.204;2023-02-28T05:16:04;16.40;;;8.07;;
10007;SDS011;5043;41.766;26.204;2023-02-28T05:18:30;13.30;;;7.30;;
10007;SDS011;5043;41.766;26.204;2023-02-28T05:20:55;11.63;;;6.28;;
10007;SDS011;5043;41.766;26.204;2023-02-28T05:23:20;14.57;;;6.78;;
10007;SDS011;5043;41.766;26.204;2023-02-28T05:25:48;11.25;;;7.28;;
10007;SDS011;5043;41.766;26.204;2023-02-28T05:28:13;11.32;;;7.20;;
10007;SDS011;5043;41.766;26.204;2023-02-28T05:30:39;14.88;;;7.35;;
10007;SDS011;5043;41.766;26.204;2023-02-28T05:33:04;12.68;;;7.22;;
10007;SDS011;5043;41.766;26.204;2023-02-28T05:35:30;20.55;;;7.93;;
10007;SDS011;5043;41.766;26.204;2023-02-28T05:37:55;16.15;;;7.03;;
10007;SDS011;5043;41.766;26.204;2023-02-28T05:40:21;13.82;;;7.95;;
10007;SDS011;5043;41.766;26.204;2023-02-28T05:42:46;16.08;;;7.90;;
10007;SDS011;5043;41.766;26.204;2023-02-28T05:45:12;14.50;;;8.13;;
10007;SDS011;5043;41.766;26.204;2023-02-28T05:47:38;13.63;;;7.15;;
10007;SDS011;5043;41.766;26.204;2023-02-28T05:50:03;14.18;;;8.80;;
10007;SDS011;5043;41.766;26.204;2023-02-28T05:52:30;16.65;;;8.45;;
10007;SDS011;5043;41.766;26.204;2023-02-28T05:54:55;15.40;;;7.88;;
10007;SDS011;5043;41.766;26.204;2023-02-28T05:57:21;17.02;;;7.82;;
10007;SDS011;5043;41.766;26.204;2023-02-28T05:59:47;12.55;;;6.88;;
10007;SDS011;5043;41.766;26.204;2023-02-28T06:02:13;13.73;;;6.80;;
10007;SDS011;5043;41.766;26.204;2023-02-28T06:04:40;12.68;;;7.45;;
10007;SDS011;5043;41.766;26.204;2023-02-28T06:07:07;14.15;;;7.80;;
10007;SDS011;5043;41.766;26.204;2023-02-28T06:09:33;17.45;;;8.10;;
10007;SDS011;5043;41.766;26.204;2023-02-28T06:11:59;14.57;;;9.50;;
10007;SDS011;5043;41.766;26.204;2023-02-28T06:14:25;16.55;;;8.60;;
10007;SDS011;5043;41.766;26.204;2023-02-28T06:16:50;14.73;;;8.20;;
10007;SDS011;5043;41.766;26.204;2023-02-28T06:19:16;16.90;;;8.43;;
10007;SDS011;5043;41.766;26.204;2023-02-28T06:21:42;12.48;;;7.43;;
10007;SDS011;5043;41.766;26.204;2023-02-28T06:24:08;18.63;;;7.80;;
10007;SDS011;5043;41.766;26.204;2023-02-28T06:26:34;15.10;;;7.55;;
10007;SDS011;5043;41.766;26.204;2023-02-28T06:29:00;15.27;;;7.97;;
10007;SDS011;5043;41.766;26.204;2023-02-28T06:31:26;15.00;;;8.18;;
10007;SDS011;5043;41.766;26.204;2023-02-28T06:33:51;14.23;;;7.97;;
10007;SDS011;5043;41.766;26.204;2023-02-28T06:36:17;16.40;;;8.05;;
10007;SDS011;5043;41.766;26.204;2023-02-28T06:38:43;13.35;;;7.03;;
10007;SDS011;5043;41.766;26.204;2023-02-28T06:41:09;17.25;;;8.90;;
10007;SDS011;5043;41.766;26.204;2023-02-28T06:43:37;11.70;;;8.10;;
10007;SDS011;5043;41.766;26.204;2023-02-28T06:46:06;19.35;;;11.88;;
10007;SDS011;5043;41.766;26.204;2023-02-28T06:48:33;20.67;;;9.93;;
10007;SDS011;5043;41.766;26.204;2023-02-28T06:51:07;15.00;;;8.13;;
10007;SDS011;5043;41.766;26.204;2023-02-28T06:53:45;16.77;;;9.10;;
10007;SDS011;5043;41.766;26.204;2023-02-28T06:56:12;20.27;;;8.73;;
10007;SDS011;5043;41.766;26.204;2023-02-28T06:58:39;18.02;;;9.02;;
10007;SDS011;5043;41.766;26.204;2023-02-28T07:01:05;15.05;;;8.30;;
10007;SDS011;5043;41.766;26.204;2023-02-28T07:03:31;16.00;;;8.98;;
10007;SDS011;5043;41.766;26.204;2023-02-28T07:05:57;14.35;;;8.90;;
10007;SDS011;5043;41.766;26.204;2023-02-28T07:08:23;17.13;;;8.73;;
10007;SDS011;5043;41.766;26.204;2023-02-28T07:10:53;16.90;;;8.60;;
10007;SDS011;5043;41.766;26.204;2023-02-28T07:13:21;13.70;;;8.07;;
10007;SDS011;5043;41.766;26.204;2023-02-28T07:15:57;14.18;;;7.78;;
10007;SDS011;5043;41.766;26.204;2023-02-28T07:18:27;14.57;;;8.15;;
10007;SDS011;5043;41.766;26.204;2023-02-28T07:20:53;19.00;;;8.35;;
10007;SDS011;5043;41.766;26.204;2023-02-28T07:23:19;17.45;;;8.63;;
10007;SDS011;5043;41.766;26.204;2023-02-28T07:25:44;17.98;;;8.68;;
10007;SDS011;5043;41.766;26.204;2023-02-28T07:28:10;17.20;;;8.65;;
10007;SDS011;5043;41.766;26.204;2023-02-28T07:30:37;14.50;;;7.53;;
10007;SDS011;5043;41.766;26.204;2023-02-28T07:33:02;11.05;;;7.78;;
10007;SDS011;5043;41.766;26.204;2023-02-28T07:35:28;18.20;;;8.30;;
10007;SDS011;5043;41.766;26.204;2023-02-28T07:37:54;13.68;;;7.93;;
10007;SDS011;5043;41.766;26.204;2023-02-28T07:40:19;13.10;;;7.45;;
10007;SDS011;5043;41.766;26.204;2023-02-28T07:42:45;11.77;;;7.55;;
10007;SDS011;5043;41.766;26.204;2023-02-28T07:45:10;10.95;;;7.18;;
10007;SDS011;5043;41.766;26.204;2023-02-28T07:47:39;11.45;;;7.88;;
10007;SDS011;5043;41.766;26.204;2023-02-28T07:50:07;15.68;;;7.75;;
10007;SDS011;5043;41.766;26.204;2023-02-28T07:52:36;13.20;;;7.65;;
10007;SDS011;5043;41.766;26.204;2023-02-28T07:55:06;10.88;;;7.43;;
10007;SDS011;5043;41.766;26.204;2023-02-28T07:57:33;11.73;;;7.47;;
10007;SDS011;5043;41.766;26.204;2023-02-28T07:59:58;12.35;;;7.07;;
10007;SDS011;5043;41.766;26.204;2023-02-28T08:02:24;16.60;;;6.82;;
10007;SDS011;5043;41.766;26.204;2023-02-28T08:04:50;13.45;;;7.22;;
10007;SDS011;5043;41.766;26.204;2023-02-28T08:07:15;11.90;;;7.38;;
10007;SDS011;5043;41.766;26.204;2023-02-28T08:09:42;14.82;;;7.53;;
10007;SDS011;5043;41.766;26.204;2023-02-28T08:12:08;20.33;;;7.75;;
10007;SDS011;5043;41.766;26.204;2023-02-28T08:14:35;11.10;;;7.97;;
10007;SDS011;5043;41.766;26.204;2023-02-28T08:17:02;16.60;;;8.60;;
10007;SDS011;5043;41.766;26.204;2023-02-28T08:19:29;14.98;;;8.30;;
10007;SDS011;5043;41.766;26.204;2023-02-28T08:21:54;16.25;;;7.80;;
10007;SDS011;5043;41.766;26.204;2023-02-28T08:24:20;16.75;;;8.13;;
10007;SDS011;5043;41.766;26.204;2023-02-28T08:26:46;16.83;;;8.48;;
10007;SDS011;5043;41.766;26.204;2023-02-28T08:29:11;17.73;;;9.13;;
10007;SDS011;5043;41.766;26.204;2023-02-28T08:31:37;16.55;;;8.25;;
10007;SDS011;5043;41.766;26.204;2023-02-28T08:34:06;16.23;;;8.73;;
10007;SDS011;5043;41.766;26.204;2023-02-28T08:36:33;21.33;;;8.95;;
10007;SDS011;5043;41.766;26.204;2023-02-28T08:39:00;11.30;;;8.50;;
10007;SDS011;5043;41.766;26.204;2023-02-28T08:41:26;17.58;;;9.80;;
10007;SDS011;5043;41.766;26.204;2023-02-28T08:43:51;13.02;;;8.50;;
10007;SDS011;5043;41.766;26.204;2023-02-28T08:46:18;16.20;;;9.85;;
10007;SDS011;5043;41.766;26.204;2023-02-28T08:48:44;17.23;;;8.25;;
10007;SDS011;5043;41.766;26.204;2023-02-28T08:51:11;17.17;;;8.38;;
10007;SDS011;5043;41.766;26.204;2023-02-28T08:53:44;15.13;;;7.53;;
10007;SDS011;5043;41.766;26.204;2023-02-28T08:56:14;13.27;;;7.88;;
10007;SDS011;5043;41.766;26.204;2023-02-28T08:58:41;18.58;;;8.40;;
10007;SDS011;5043;41.766;26.204;2023-02-28T09:01:15;18.15;;;8.13;;
10007;SDS011;5043;41.766;26.204;2023-02-28T09:03:43;15.52;;;7.75;;
10007;SDS011;5043;41.766;26.204;2023-02-28T09:06:09;21.33;;;7.95;;
10007;SDS011;5043;41.766;26.204;2023-02-28T09:08:36;14.35;;;7.35;;
10007;SDS011;5043;41.766;26.204;2023-02-28T09:11:01;15.02;;;8.13;;
10007;SDS011;5043;41.766;26.204;2023-02-28T09:13:28;16.17;;;7.68;;
10007;SDS011;5043;41.766;26.204;2023-02-28T09:15:56;18.45;;;8.50;;
10007;SDS011;5043;41.766;26.204;2023-02-28T09:18:23;19.70;;;8.77;;
10007;SDS011;5043;41.766;26.204;2023-02-28T09:20:48;16.50;;;8.00;;
10007;SDS011;5043;41.766;26.204;2023-02-28T09:23:17;19.35;;;8.13;;
10007;SDS011;5043;41.766;26.204;2023-02-28T09:25:46;14.65;;;8.38;;
10007;SDS011;5043;41.766;26.204;2023-02-28T09:28:12;16.92;;;8.45;;
10007;SDS011;5043;41.766;26.204;2023-02-28T09:30:40;18.02;;;8.15;;
10007;SDS011;5043;41.766;26.204;2023-02-28T09:33:06;21.58;;;9.13;;
10007;SDS011;5043;41.766;26.204;2023-02-28T09:35:31;17.65;;;9.65;;
10007;SDS011;5043;41.766;26.204;2023-02-28T09:37:56;17.17;;;7.82;;
10007;SDS011;5043;41.766;26.204;2023-02-28T09:40:23;14.35;;;8.05;;
10007;SDS011;5043;41.766;26.204;2023-02-28T09:42:52;16.38;;;8.13;;
10007;SDS011;5043;41.766;26.204;2023-02-28T09:48:02;14.10;;;7.10;;
10007;SDS011;5043;41.766;26.204;2023-02-28T09:50:36;11.48;;;7.40;;
10007;SDS011;5043;41.766;26.204;2023-02-28T09:53:29;12.25;;;7.45;;
10007;SDS011;5043;41.766;26.204;2023-02-28T09:55:59;19.90;;;8.77;;
10007;SDS011;5043;41.766;26.204;2023-02-28T10:04:29;25.77;;;12.35;;
10007;SDS011;5043;41.766;26.204;2023-02-28T10:07:22;15.88;;;7.22;;
10007;SDS011;5043;41.766;26.204;2023-02-28T10:10:05;12.13;;;7.40;;
10007;SDS011;5043;41.766;26.204;2023-02-28T10:12:41;21.48;;;9.80;;
10007;SDS011;5043;41.766;26.204;2023-02-28T10:15:13;15.77;;;9.38;;
10007;SDS011;5043;41.766;26.204;2023-02-28T10:17:41;18.23;;;7.45;;
10007;SDS011;5043;41.766;26.204;2023-02-28T10:25:59;10.43;;;6.47;;
10007;SDS011;5043;41.766;26.204;2023-02-28T10:28:30;14.10;;;7.07;;
10007;SDS011;5043;41.766;26.204;2023-02-28T10:30:56;13.07;;;7.25;;
10007;SDS011;5043;41.766;26.204;2023-02-28T10:33:30;18.00;;;7.10;;
10007;SDS011;5043;41.766;26.204;2023-02-28T10:35:59;15.23;;;6.97;;
10007;SDS011;5043;41.766;26.204;2023-02-28T10:41:05;19.00;;;7.68;;
10007;SDS011;5043;41.766;26.204;2023-02-28T10:43:35;13.15;;;6.75;;
10007;SDS011;5043;41.766;26.204;2023-02-28T10:48:38;11.20;;;7.10;;
10007;SDS011;5043;41.766;26.204;2023-02-28T10:51:07;13.77;;;7.43;;
10007;SDS011;5043;41.766;26.204;2023-02-28T10:53:53;14.10;;;7.07;;
10007;SDS011;5043;41.766;26.204;2023-02-28T10:56:24;15.32;;;7.75;;
10007;SDS011;5043;41.766;26.204;2023-02-28T11:01:47;15.65;;;7.55;;
10007;SDS011;5043;41.766;26.204;2023-02-28T11:07:00;14.68;;;6.22;;
10007;SDS011;5043;41.766;26.204;2023-02-28T11:12:00;14.57;;;8.07;;
10007;SDS011;5043;41.766;26.204;2023-02-28T11:14:30;21.63;;;7.82;;
10007;SDS011;5043;41.766;26.204;2023-02-28T11:17:02;14.57;;;7.32;;
10007;SDS011;5043;41.766;26.204;2023-02-28T11:19:39;14.75;;;7.68;;
10007;SDS011;5043;41.766;26.204;2023-02-28T11:22:10;14.77;;;7.25;;
10007;SDS011;5043;41.766;26.204;2023-02-28T11:24:43;12.90;;;7.57;;
10007;SDS011;5043;41.766;26.204;2023-02-28T11:29:54;15.80;;;7.18;;
10007;SDS011;5043;41.766;26.204;2023-02-28T11:32:21;13.20;;;6.70;;
10007;SDS011;5043;41.766;26.204;2023-02-28T11:37:35;14.55;;;7.53;;
10007;SDS011;5043;41.766;26.204;2023-02-28T11:40:02;19.30;;;9.30;;
10007;SDS011;5043;41.766;26.204;2023-02-28T11:42:43;14.80;;;7.97;;
10007;SDS011;5043;41.766;26.204;2023-02-28T11:48:16;13.02;;;7.07;;
10007;SDS011;5043;41.766;26.204;2023-02-28T11:56:47;17.27;;;8.80;;
10007;SDS011;5043;41.766;26.204;2023-02-28T12:10:10;18.58;;;10.13;;
10007;SDS011;5043;41.766;26.204;2023-02-28T12:21:08;22.00;;;12.10;;
10007;SDS011;5043;41.766;26.204;2023-02-28T12:28:18;15.23;;;11.55;;
10007;SDS011;5043;41.766;26.204;2023-02-28T12:30:50;19.92;;;12.73;;
10007;SDS011;5043;41.766;26.204;2023-02-28T12:33:22;20.33;;;12.98;;
10007;SDS011;5043;41.766;26.204;2023-02-28T12:35:58;20.88;;;12.75;;
10007;SDS011;5043;41.766;26.204;2023-02-28T12:38:27;16.40;;;12.65;;
10007;SDS011;5043;41.766;26.204;2023-02-28T12:40:59;20.25;;;13.73;;
10007;SDS011;5043;41.766;26.204;2023-02-28T12:43:32;22.23;;;15.38;;
10007;SDS011;5043;41.766;26.204;2023-02-28T12:46:07;22.77;;;14.38;;
10007;SDS011;5043;41.766;26.204;2023-02-28T12:48:42;20.13;;;14.90;;
10007;SDS011;5043;41.766;26.204;2023-02-28T12:51:11;20.02;;;13.40;;
10007;SDS011;5043;41.766;26.204;2023-02-28T13:02:29;27.48;;;15.20;;
10007;SDS011;5043;41.766;26.204;2023-02-28T13:08:27;20.60;;;15.27;;
10007;SDS011;5043;41.766;26.204;2023-02-28T13:10:59;24.10;;;16.70;;
10007;SDS011;5043;41.766;26.204;2023-02-28T13:13:25;29.20;;;16.30;;
10007;SDS011;5043;41.766;26.204;2023-02-28T13:18:31;22.73;;;15.43;;
10007;SDS011;5043;41.766;26.204;2023-02-28T13:21:09;24.77;;;17.33;;
10007;SDS011;5043;41.766;26.204;2023-02-28T13:37:47;25.60;;;20.08;;
10007;SDS011;5043;41.766;26.204;2023-02-28T13:39:54;51.90;;;32.10;;
10007;SDS011;5043;41.766;26.204;2023-02-28T13:42:36;31.40;;;19.63;;
10007;SDS011;5043;41.766;26.204;2023-02-28T14:06:48;28.73;;;19.27;;
10007;SDS011;5043;41.766;26.204;2023-02-28T14:09:30;26.27;;;18.65;;
10007;SDS011;5043;41.766;26.204;2023-02-28T14:15:03;25.85;;;19.02;;
10007;SDS011;5043;41.766;26.204;2023-02-28T14:17:53;28.83;;;20.65;;
10007;SDS011;5043;41.766;26.204;2023-02-28T14:20:20;27.98;;;21.52;;
10007;SDS011;5043;41.766;26.204;2023-02-28T14:26:00;33.60;;;22.73;;
10007;SDS011;5043;41.766;26.204;2023-02-28T14:31:35;31.73;;;21.77;;
10007;SDS011;5043;41.766;26.204;2023-02-28T14:34:21;30.50;;;21.95;;
10007;SDS011;5043;41.766;26.204;2023-02-28T14:37:03;36.83;;;26.27;;
10007;SDS011;5043;41.766;26.204;2023-02-28T14:39:30;31.08;;;22.35;;
10007;SDS011;5043;41.766;26.204;2023-02-28T14:41:56;36.42;;;23.92;;
10007;SDS011;5043;41.766;26.204;2023-02-28T14:44:28;30.90;;;21.80;;
10007;SDS011;5043;41.766;26.204;2023-02-28T14:46:54;26.63;;;20.38;;
10007;SDS011;5043;41.766;26.204;2023-02-28T14:49:28;28.42;;;21.23;;
10007;SDS011;5043;41.766;26.204;2023-02-28T14:52:05;33.25;;;21.65;;
10007;SDS011;5043;41.766;26.204;2023-02-28T14:54:53;32.15;;;22.40;;
10007;SDS011;5043;41.766;26.204;2023-02-28T15:00:00;42.15;;;27.48;;
10007;SDS011;5043;41.766;26.204;2023-02-28T15:02:30;33.63;;;25.00;;
10007;SDS011;5043;41.766;26.204;2023-02-28T15:05:00;35.55;;;23.98;;
10007;SDS011;5043;41.766;26.204;2023-02-28T15:07:48;39.45;;;25.85;;
10007;SDS011;5043;41.766;26.204;2023-02-28T15:15:26;37.63;;;24.33;;
10007;SDS011;5043;41.766;26.204;2023-02-28T15:17:58;31.75;;;22.63;;
10007;SDS011;5043;41.766;26.204;2023-02-28T15:20:25;30.20;;;23.60;;
10007;SDS011;5043;41.766;26.204;2023-02-28T15:22:52;30.88;;;22.42;;
10007;SDS011;5043;41.766;26.204;2023-02-28T15:25:20;26.77;;;21.77;;
10007;SDS011;5043;41.766;26.204;2023-02-28T15:27:51;31.20;;;22.02;;
10007;SDS011;5043;41.766;26.204;2023-02-28T15:30:21;23.60;;;18.10;;
10007;SDS011;5043;41.766;26.204;2023-02-28T15:35:32;12.68;;;9.95;;
10007;SDS011;5043;41.766;26.204;2023-02-28T15:38:02;12.45;;;9.75;;
10007;SDS011;5043;41.766;26.204;2023-02-28T15:43:07;11.32;;;9.05;;
10007;SDS011;5043;41.766;26.204;2023-02-28T15:48:17;8.80;;;6.78;;
10007;SDS011;5043;41.766;26.204;2023-02-28T15:50:55;8.80;;;6.93;;
10007;SDS011;5043;41.766;26.204;2023-02-28T15:53:28;7.93;;;6.57;;
10007;SDS011;5043;41.766;26.204;2023-02-28T15:56:01;11.55;;;8.32;;
10007;SDS011;5043;41.766;26.204;2023-02-28T15:58:28;17.77;;;15.57;;
10007;SDS011;5043;41.766;26.204;2023-02-28T16:01:05;12.05;;;10.05;;
10007;SDS011;5043;41.766;26.204;2023-02-28T16:03:51;10.98;;;8.50;;
10007;SDS011;5043;41.766;26.204;2023-02-28T16:08:58;14.95;;;12.82;;
10007;SDS011;5043;41.766;26.204;2023-02-28T16:11:24;14.23;;;12.48;;
10007;SDS011;5043;41.766;26.204;2023-02-28T16:13:50;11.45;;;9.18;;
10007;SDS011;5043;41.766;26.204;2023-02-28T16:16:21;10.23;;;8.27;;
10007;SDS011;5043;41.766;26.204;2023-02-28T16:18:49;8.52;;;7.00;;
10007;SDS011;5043;41.766;26.204;2023-02-28T16:21:15;8.48;;;7.10;;
10007;SDS011;5043;41.766;26.204;2023-02-28T16:23:42;8.48;;;6.72;;
10007;SDS011;5043;41.766;26.204;2023-02-28T16:26:07;13.05;;;9.93;;
10007;SDS011;5043;41.766;26.204;2023-02-28T16:28:34;25.83;;;17.98;;
10007;SDS011;5043;41.766;26.204;2023-02-28T16:31:02;17.05;;;11.20;;
10007;SDS011;5043;41.766;26.204;2023-02-28T16:33:30;15.40;;;12.52;;
10007;SDS011;5043;41.766;26.204;2023-02-28T16:35:57;15.80;;;11.40;;
10007;SDS011;5043;41.766;26.204;2023-02-28T16:38:23;13.90;;;9.65;;
10007;SDS011;5043;41.766;26.204;2023-02-28T16:40:50;16.10;;;10.90;;
10007;SDS011;5043;41.766;26.204;2023-02-28T16:43:20;11.93;;;9.05;;
10007;SDS011;5043;41.766;26.204;2023-02-28T16:45:53;11.18;;;7.93;;
10007;SDS011;5043;41.766;26.204;2023-02-28T16:48:21;17.27;;;9.68;;
10007;SDS011;5043;41.766;26.204;2023-02-28T16:50:47;10.02;;;8.43;;
10007;SDS011;5043;41.766;26.204;2023-02-28T16:53:12;13.10;;;10.75;;
10007;SDS011;5043;41.766;26.204;2023-02-28T16:55:38;19.42;;;11.90;;
10007;SDS011;5043;41.766;26.204;2023-02-28T16:58:04;17.05;;;10.95;;
10007;SDS011;5043;41.766;26.204;2023-02-28T17:00:31;12.95;;;10.20;;
10007;SDS011;5043;41.766;26.204;2023-02-28T17:02:57;11.27;;;7.95;;
10007;SDS011;5043;41.766;26.204;2023-02-28T17:05:24;14.18;;;8.18;;
10007;SDS011;5043;41.766;26.204;2023-02-28T17:07:58;8.52;;;5.75;;
10007;SDS011;5043;41.766;26.204;2023-02-28T17:10:25;7.10;;;5.45;;
10007;SDS011;5043;41.766;26.204;2023-02-28T17:12:51;7.72;;;4.97;;
10007;SDS011;5043;41.766;26.204;2023-02-28T17:15:18;9.32;;;4.90;;
10007;SDS011;5043;41.766;26.204;2023-02-28T17:17:45;4.72;;;3.80;;
10007;SDS011;5043;41.766;26.204;2023-02-28T17:22:42;5.13;;;3.95;;
10007;SDS011;5043;41.766;26.204;2023-02-28T17:25:08;14.32;;;10.00;;
10007;SDS011;5043;41.766;26.204;2023-02-28T17:27:35;22.60;;;13.52;;
10007;SDS011;5043;41.766;26.204;2023-02-28T17:30:09;33.70;;;17.75;;
10007;SDS011;5043;41.766;26.204;2023-02-28T17:32:40;12.55;;;7.07;;
10007;SDS011;5043;41.766;26.204;2023-02-28T17:37:57;9.82;;;5.75;;
10007;SDS011;5043;41.766;26.204;2023-02-28T17:40:23;9.88;;;6.18;;
10007;SDS011;5043;41.766;26.204;2023-02-28T17:42:49;14.75;;;7.47;;
10007;SDS011;5043;41.766;26.204;2023-02-28T17:45:18;10.68;;;6.82;;